Creston, Illinois
Current Conditions -  °F | °C
As of 6:15 PM on Tuesday 25 Nov 2014 (Local Time) from KRPJ Reporting Station
Clear Clear  
Wind Chill: 12°   Ceiling: Unl
Heat Index: 12°   Visibility: 7mi
Dew Point: 10°   Wind: 3mph
Humidity: 92%   Direction: 190°S
Pressure: 30.16"   Gusts: NA
Location:  41.93°N, 88.96°W
Report Text: KRPJ 260015Z AUTO 19003KT 7SM CLR M11/M12 A3016 RMK AO2 T11121123
Loading
Personal Weather Stations






























Interactive Weather Map New forecast layout! Learn more

10-Day Weather Forecast

Advertisements
Track Severe Weather on mobile